sensor_id;sensor_type;location;lat;lon;timestamp;P1;durP1;ratioP1;P2;durP2;ratioP2
22652;SDS011;11493;43.344;26.226;2022-07-05T00:01:27;2.50;;;2.10;;
22652;SDS011;11493;43.344;26.226;2022-07-05T00:03:54;2.70;;;1.90;;
22652;SDS011;11493;43.344;26.226;2022-07-05T00:06:21;4.93;;;1.90;;
22652;SDS011;11493;43.344;26.226;2022-07-05T00:08:49;2.95;;;2.10;;
22652;SDS011;11493;43.344;26.226;2022-07-05T00:11:16;12.93;;;2.30;;
22652;SDS011;11493;43.344;26.226;2022-07-05T00:13:43;2.20;;;1.80;;
22652;SDS011;11493;43.344;26.226;2022-07-05T00:16:10;3.60;;;2.03;;
22652;SDS011;11493;43.344;26.226;2022-07-05T00:18:38;2.97;;;1.80;;
22652;SDS011;11493;43.344;26.226;2022-07-05T00:21:05;3.78;;;2.00;;
22652;SDS011;11493;43.344;26.226;2022-07-05T00:23:32;3.75;;;2.33;;
22652;SDS011;11493;43.344;26.226;2022-07-05T00:25:59;6.95;;;2.22;;
22652;SDS011;11493;43.344;26.226;2022-07-05T00:28:26;3.40;;;2.22;;
22652;SDS011;11493;43.344;26.226;2022-07-05T00:30:54;2.65;;;2.25;;
22652;SDS011;11493;43.344;26.226;2022-07-05T00:33:21;5.70;;;2.20;;
22652;SDS011;11493;43.344;26.226;2022-07-05T00:35:48;3.20;;;2.03;;
22652;SDS011;11493;43.344;26.226;2022-07-05T00:38:15;3.33;;;2.10;;
22652;SDS011;11493;43.344;26.226;2022-07-05T00:40:44;4.28;;;2.22;;
22652;SDS011;11493;43.344;26.226;2022-07-05T00:43:11;1.92;;;1.83;;
22652;SDS011;11493;43.344;26.226;2022-07-05T00:45:38;9.90;;;2.45;;
22652;SDS011;11493;43.344;26.226;2022-07-05T00:48:06;2.83;;;2.53;;
22652;SDS011;11493;43.344;26.226;2022-07-05T00:50:33;9.07;;;2.45;;
22652;SDS011;11493;43.344;26.226;2022-07-05T00:53:01;4.20;;;2.15;;
22652;SDS011;11493;43.344;26.226;2022-07-05T00:55:28;3.38;;;2.35;;
22652;SDS011;11493;43.344;26.226;2022-07-05T00:57:55;4.50;;;2.28;;
22652;SDS011;11493;43.344;26.226;2022-07-05T01:00:23;4.75;;;2.30;;
22652;SDS011;11493;43.344;26.226;2022-07-05T01:02:50;6.55;;;2.53;;
22652;SDS011;11493;43.344;26.226;2022-07-05T01:05:18;4.60;;;3.13;;
22652;SDS011;11493;43.344;26.226;2022-07-05T01:07:45;6.47;;;2.75;;
22652;SDS011;11493;43.344;26.226;2022-07-05T01:10:13;6.90;;;5.00;;
22652;SDS011;11493;43.344;26.226;2022-07-05T01:12:40;7.25;;;5.18;;
22652;SDS011;11493;43.344;26.226;2022-07-05T01:15:08;3.95;;;3.65;;
22652;SDS011;11493;43.344;26.226;2022-07-05T01:17:36;4.63;;;3.20;;
22652;SDS011;11493;43.344;26.226;2022-07-05T01:20:05;4.07;;;3.78;;
22652;SDS011;11493;43.344;26.226;2022-07-05T01:25:24;6.53;;;4.05;;
22652;SDS011;11493;43.344;26.226;2022-07-05T01:27:53;4.80;;;4.03;;
22652;SDS011;11493;43.344;26.226;2022-07-05T01:30:22;7.15;;;3.95;;
22652;SDS011;11493;43.344;26.226;2022-07-05T01:32:50;3.25;;;2.92;;
22652;SDS011;11493;43.344;26.226;2022-07-05T01:35:18;5.70;;;3.03;;
22652;SDS011;11493;43.344;26.226;2022-07-05T01:37:50;6.35;;;2.72;;
22652;SDS011;11493;43.344;26.226;2022-07-05T01:40:18;4.13;;;2.75;;
22652;SDS011;11493;43.344;26.226;2022-07-05T01:42:46;6.85;;;2.78;;
22652;SDS011;11493;43.344;26.226;2022-07-05T01:45:15;8.82;;;4.43;;
22652;SDS011;11493;43.344;26.226;2022-07-05T01:48:07;7.78;;;4.43;;
22652;SDS011;11493;43.344;26.226;2022-07-05T01:50:45;10.05;;;4.07;;
22652;SDS011;11493;43.344;26.226;2022-07-05T01:53:22;7.22;;;3.17;;
22652;SDS011;11493;43.344;26.226;2022-07-05T01:55:51;4.88;;;2.58;;
22652;SDS011;11493;43.344;26.226;2022-07-05T01:58:19;3.97;;;2.95;;
22652;SDS011;11493;43.344;26.226;2022-07-05T02:00:48;5.95;;;3.00;;
22652;SDS011;11493;43.344;26.226;2022-07-05T02:03:18;10.50;;;2.80;;
22652;SDS011;11493;43.344;26.226;2022-07-05T02:06:06;4.32;;;3.70;;
22652;SDS011;11493;43.344;26.226;2022-07-05T02:08:36;5.00;;;2.83;;
22652;SDS011;11493;43.344;26.226;2022-07-05T02:11:07;3.20;;;2.90;;
22652;SDS011;11493;43.344;26.226;2022-07-05T02:13:36;6.40;;;2.60;;
22652;SDS011;11493;43.344;26.226;2022-07-05T02:16:23;9.95;;;2.40;;
22652;SDS011;11493;43.344;26.226;2022-07-05T02:18:52;9.10;;;2.63;;
22652;SDS011;11493;43.344;26.226;2022-07-05T02:21:20;3.75;;;2.60;;
22652;SDS011;11493;43.344;26.226;2022-07-05T02:23:50;3.05;;;2.75;;
22652;SDS011;11493;43.344;26.226;2022-07-05T02:26:20;7.70;;;2.88;;
22652;SDS011;11493;43.344;26.226;2022-07-05T02:28:48;9.27;;;2.35;;
22652;SDS011;11493;43.344;26.226;2022-07-05T02:31:17;8.40;;;3.10;;
22652;SDS011;11493;43.344;26.226;2022-07-05T02:33:49;7.05;;;2.70;;
22652;SDS011;11493;43.344;26.226;2022-07-05T02:36:21;9.77;;;2.55;;
22652;SDS011;11493;43.344;26.226;2022-07-05T02:38:49;2.42;;;2.22;;
22652;SDS011;11493;43.344;26.226;2022-07-05T02:41:16;3.88;;;2.50;;
22652;SDS011;11493;43.344;26.226;2022-07-05T02:43:46;8.93;;;3.03;;
22652;SDS011;11493;43.344;26.226;2022-07-05T02:46:16;6.78;;;2.35;;
22652;SDS011;11493;43.344;26.226;2022-07-05T02:48:44;8.32;;;2.70;;
22652;SDS011;11493;43.344;26.226;2022-07-05T02:51:11;8.70;;;2.33;;
22652;SDS011;11493;43.344;26.226;2022-07-05T02:53:39;2.60;;;2.40;;
22652;SDS011;11493;43.344;26.226;2022-07-05T02:56:07;7.35;;;2.20;;
22652;SDS011;11493;43.344;26.226;2022-07-05T02:58:36;5.30;;;3.08;;
22652;SDS011;11493;43.344;26.226;2022-07-05T03:03:36;6.13;;;2.72;;
22652;SDS011;11493;43.344;26.226;2022-07-05T03:06:04;3.40;;;2.83;;
22652;SDS011;11493;43.344;26.226;2022-07-05T03:08:33;5.35;;;2.50;;
22652;SDS011;11493;43.344;26.226;2022-07-05T03:11:01;6.97;;;2.58;;
22652;SDS011;11493;43.344;26.226;2022-07-05T03:13:29;8.13;;;2.78;;
22652;SDS011;11493;43.344;26.226;2022-07-05T03:15:57;2.85;;;2.65;;
22652;SDS011;11493;43.344;26.226;2022-07-05T03:18:24;3.13;;;2.83;;
22652;SDS011;11493;43.344;26.226;2022-07-05T03:20:52;4.25;;;2.60;;
22652;SDS011;11493;43.344;26.226;2022-07-05T03:23:22;5.65;;;4.20;;
22652;SDS011;11493;43.344;26.226;2022-07-05T03:25:54;9.18;;;4.13;;
22652;SDS011;11493;43.344;26.226;2022-07-05T03:28:22;6.32;;;4.00;;
22652;SDS011;11493;43.344;26.226;2022-07-05T03:30:52;3.42;;;3.13;;
22652;SDS011;11493;43.344;26.226;2022-07-05T03:33:21;10.07;;;2.90;;
22652;SDS011;11493;43.344;26.226;2022-07-05T03:35:55;4.45;;;2.65;;
22652;SDS011;11493;43.344;26.226;2022-07-05T03:38:24;3.45;;;2.40;;
22652;SDS011;11493;43.344;26.226;2022-07-05T03:40:51;4.13;;;2.50;;
22652;SDS011;11493;43.344;26.226;2022-07-05T03:43:20;4.40;;;2.30;;
22652;SDS011;11493;43.344;26.226;2022-07-05T03:45:51;5.10;;;2.70;;
22652;SDS011;11493;43.344;26.226;2022-07-05T03:48:18;2.78;;;2.50;;
22652;SDS011;11493;43.344;26.226;2022-07-05T03:51:06;4.35;;;2.85;;
22652;SDS011;11493;43.344;26.226;2022-07-05T03:53:34;6.18;;;2.65;;
22652;SDS011;11493;43.344;26.226;2022-07-05T03:56:03;2.72;;;2.50;;
22652;SDS011;11493;43.344;26.226;2022-07-05T03:58:30;4.10;;;2.75;;
22652;SDS011;11493;43.344;26.226;2022-07-05T04:00:59;8.77;;;3.13;;
22652;SDS011;11493;43.344;26.226;2022-07-05T04:03:28;7.15;;;3.08;;
22652;SDS011;11493;43.344;26.226;2022-07-05T04:05:57;4.18;;;2.80;;
22652;SDS011;11493;43.344;26.226;2022-07-05T04:08:24;9.40;;;3.00;;
22652;SDS011;11493;43.344;26.226;2022-07-05T04:10:52;5.25;;;3.03;;
22652;SDS011;11493;43.344;26.226;2022-07-05T04:13:21;11.48;;;3.13;;
22652;SDS011;11493;43.344;26.226;2022-07-05T04:15:52;6.33;;;2.83;;
22652;SDS011;11493;43.344;26.226;2022-07-05T04:18:21;6.45;;;2.80;;
22652;SDS011;11493;43.344;26.226;2022-07-05T04:20:49;8.65;;;3.35;;
22652;SDS011;11493;43.344;26.226;2022-07-05T04:23:16;6.22;;;3.30;;
22652;SDS011;11493;43.344;26.226;2022-07-05T04:25:44;9.00;;;2.97;;
22652;SDS011;11493;43.344;26.226;2022-07-05T04:28:17;7.28;;;3.08;;
22652;SDS011;11493;43.344;26.226;2022-07-05T04:30:46;8.13;;;3.03;;
22652;SDS011;11493;43.344;26.226;2022-07-05T04:33:14;8.55;;;3.90;;
22652;SDS011;11493;43.344;26.226;2022-07-05T04:35:45;6.10;;;3.43;;
22652;SDS011;11493;43.344;26.226;2022-07-05T04:38:13;4.32;;;3.33;;
22652;SDS011;11493;43.344;26.226;2022-07-05T04:40:42;7.47;;;3.20;;
22652;SDS011;11493;43.344;26.226;2022-07-05T04:43:10;10.75;;;3.70;;
22652;SDS011;11493;43.344;26.226;2022-07-05T04:45:37;9.15;;;3.20;;
22652;SDS011;11493;43.344;26.226;2022-07-05T04:48:05;5.72;;;3.05;;
22652;SDS011;11493;43.344;26.226;2022-07-05T04:50:34;14.30;;;3.50;;
22652;SDS011;11493;43.344;26.226;2022-07-05T04:53:03;7.93;;;3.20;;
22652;SDS011;11493;43.344;26.226;2022-07-05T04:55:30;16.95;;;4.13;;
22652;SDS011;11493;43.344;26.226;2022-07-05T04:57:57;6.10;;;3.10;;
22652;SDS011;11493;43.344;26.226;2022-07-05T05:00:25;9.98;;;3.42;;
22652;SDS011;11493;43.344;26.226;2022-07-05T05:02:53;10.43;;;4.22;;
22652;SDS011;11493;43.344;26.226;2022-07-05T05:05:20;8.10;;;2.90;;
22652;SDS011;11493;43.344;26.226;2022-07-05T05:07:47;6.50;;;3.42;;
22652;SDS011;11493;43.344;26.226;2022-07-05T05:10:14;10.93;;;3.35;;
22652;SDS011;11493;43.344;26.226;2022-07-05T05:12:41;12.82;;;4.00;;
22652;SDS011;11493;43.344;26.226;2022-07-05T05:15:10;12.38;;;3.95;;
22652;SDS011;11493;43.344;26.226;2022-07-05T05:17:38;9.85;;;3.70;;
22652;SDS011;11493;43.344;26.226;2022-07-05T05:20:09;9.80;;;3.25;;
22652;SDS011;11493;43.344;26.226;2022-07-05T05:22:38;12.10;;;4.00;;
22652;SDS011;11493;43.344;26.226;2022-07-05T05:25:06;5.82;;;3.70;;
22652;SDS011;11493;43.344;26.226;2022-07-05T05:27:34;6.93;;;3.33;;
22652;SDS011;11493;43.344;26.226;2022-07-05T05:30:02;8.73;;;3.35;;
22652;SDS011;11493;43.344;26.226;2022-07-05T05:32:29;11.00;;;3.40;;
22652;SDS011;11493;43.344;26.226;2022-07-05T05:34:57;13.32;;;3.60;;
22652;SDS011;11493;43.344;26.226;2022-07-05T05:37:24;9.98;;;3.33;;
22652;SDS011;11493;43.344;26.226;2022-07-05T05:39:52;10.73;;;3.03;;
22652;SDS011;11493;43.344;26.226;2022-07-05T05:42:19;8.48;;;2.80;;
22652;SDS011;11493;43.344;26.226;2022-07-05T05:44:47;15.77;;;3.30;;
22652;SDS011;11493;43.344;26.226;2022-07-05T05:47:14;8.88;;;2.42;;
22652;SDS011;11493;43.344;26.226;2022-07-05T05:49:42;10.07;;;3.28;;
22652;SDS011;11493;43.344;26.226;2022-07-05T05:52:10;8.85;;;2.90;;
22652;SDS011;11493;43.344;26.226;2022-07-05T05:54:38;14.45;;;8.73;;
22652;SDS011;11493;43.344;26.226;2022-07-05T05:57:05;19.77;;;10.98;;
22652;SDS011;11493;43.344;26.226;2022-07-05T05:59:32;16.55;;;10.55;;
22652;SDS011;11493;43.344;26.226;2022-07-05T06:01:59;14.10;;;8.23;;
22652;SDS011;11493;43.344;26.226;2022-07-05T06:04:27;10.60;;;5.60;;
22652;SDS011;11493;43.344;26.226;2022-07-05T06:06:54;12.63;;;5.85;;
22652;SDS011;11493;43.344;26.226;2022-07-05T06:09:21;11.60;;;5.45;;
22652;SDS011;11493;43.344;26.226;2022-07-05T06:11:49;14.00;;;5.00;;
22652;SDS011;11493;43.344;26.226;2022-07-05T06:14:16;7.38;;;4.22;;
22652;SDS011;11493;43.344;26.226;2022-07-05T06:16:43;16.08;;;7.13;;
22652;SDS011;11493;43.344;26.226;2022-07-05T06:19:11;15.00;;;8.10;;
22652;SDS011;11493;43.344;26.226;2022-07-05T06:21:38;21.50;;;7.10;;
22652;SDS011;11493;43.344;26.226;2022-07-05T06:24:05;8.88;;;3.45;;
22652;SDS011;11493;43.344;26.226;2022-07-05T06:26:33;12.70;;;3.35;;
22652;SDS011;11493;43.344;26.226;2022-07-05T06:29:00;8.95;;;2.15;;
22652;SDS011;11493;43.344;26.226;2022-07-05T06:31:27;7.82;;;2.63;;
22652;SDS011;11493;43.344;26.226;2022-07-05T06:33:55;12.20;;;3.00;;
22652;SDS011;11493;43.344;26.226;2022-07-05T06:36:22;15.75;;;3.28;;
22652;SDS011;11493;43.344;26.226;2022-07-05T06:38:49;13.45;;;3.08;;
22652;SDS011;11493;43.344;26.226;2022-07-05T06:41:17;12.07;;;3.55;;
22652;SDS011;11493;43.344;26.226;2022-07-05T06:43:44;12.10;;;3.15;;
22652;SDS011;11493;43.344;26.226;2022-07-05T06:46:20;15.13;;;3.35;;
22652;SDS011;11493;43.344;26.226;2022-07-05T06:48:47;15.52;;;2.50;;
22652;SDS011;11493;43.344;26.226;2022-07-05T06:51:19;7.32;;;2.70;;
22652;SDS011;11493;43.344;26.226;2022-07-05T06:53:47;4.75;;;2.60;;
22652;SDS011;11493;43.344;26.226;2022-07-05T06:56:31;4.90;;;2.38;;
22652;SDS011;11493;43.344;26.226;2022-07-05T06:59:14;9.43;;;2.90;;
22652;SDS011;11493;43.344;26.226;2022-07-05T07:02:02;41.92;;;4.68;;
22652;SDS011;11493;43.344;26.226;2022-07-05T07:04:50;18.27;;;4.05;;
22652;SDS011;11493;43.344;26.226;2022-07-05T07:07:37;14.07;;;4.03;;
22652;SDS011;11493;43.344;26.226;2022-07-05T07:10:23;13.50;;;3.65;;
22652;SDS011;11493;43.344;26.226;2022-07-05T07:12:58;14.50;;;3.38;;
22652;SDS011;11493;43.344;26.226;2022-07-05T07:15:26;11.10;;;3.22;;
22652;SDS011;11493;43.344;26.226;2022-07-05T07:17:54;7.60;;;2.97;;
22652;SDS011;11493;43.344;26.226;2022-07-05T07:20:22;9.32;;;3.22;;
22652;SDS011;11493;43.344;26.226;2022-07-05T07:22:50;12.77;;;3.50;;
22652;SDS011;11493;43.344;26.226;2022-07-05T07:25:17;14.85;;;3.42;;
22652;SDS011;11493;43.344;26.226;2022-07-05T07:27:48;16.20;;;3.47;;
22652;SDS011;11493;43.344;26.226;2022-07-05T07:30:17;11.35;;;3.53;;
22652;SDS011;11493;43.344;26.226;2022-07-05T07:32:47;15.07;;;3.40;;
22652;SDS011;11493;43.344;26.226;2022-07-05T07:35:14;4.72;;;2.17;;
22652;SDS011;11493;43.344;26.226;2022-07-05T07:37:41;6.03;;;2.10;;
22652;SDS011;11493;43.344;26.226;2022-07-05T07:40:09;20.80;;;3.92;;
22652;SDS011;11493;43.344;26.226;2022-07-05T07:42:37;5.90;;;2.47;;
22652;SDS011;11493;43.344;26.226;2022-07-05T07:45:04;5.05;;;2.25;;
22652;SDS011;11493;43.344;26.226;2022-07-05T07:47:33;11.90;;;3.05;;
22652;SDS011;11493;43.344;26.226;2022-07-05T07:50:02;9.57;;;3.58;;
22652;SDS011;11493;43.344;26.226;2022-07-05T07:52:30;7.55;;;3.40;;
22652;SDS011;11493;43.344;26.226;2022-07-05T07:55:00;7.43;;;2.20;;
22652;SDS011;11493;43.344;26.226;2022-07-05T07:57:29;5.45;;;1.85;;
22652;SDS011;11493;43.344;26.226;2022-07-05T07:59:56;5.80;;;2.08;;
22652;SDS011;11493;43.344;26.226;2022-07-05T08:02:23;4.38;;;2.22;;
22652;SDS011;11493;43.344;26.226;2022-07-05T08:04:51;2.63;;;1.80;;
22652;SDS011;11493;43.344;26.226;2022-07-05T08:07:18;6.30;;;2.15;;
22652;SDS011;11493;43.344;26.226;2022-07-05T08:09:46;6.72;;;2.35;;
22652;SDS011;11493;43.344;26.226;2022-07-05T08:12:14;4.35;;;2.25;;
22652;SDS011;11493;43.344;26.226;2022-07-05T08:14:41;4.50;;;2.70;;
22652;SDS011;11493;43.344;26.226;2022-07-05T08:17:09;7.50;;;2.40;;
22652;SDS011;11493;43.344;26.226;2022-07-05T08:19:37;15.20;;;2.00;;
22652;SDS011;11493;43.344;26.226;2022-07-05T08:22:23;3.88;;;1.88;;
22652;SDS011;11493;43.344;26.226;2022-07-05T08:24:51;6.22;;;1.90;;
22652;SDS011;11493;43.344;26.226;2022-07-05T08:27:18;6.82;;;1.90;;
22652;SDS011;11493;43.344;26.226;2022-07-05T08:29:45;13.02;;;2.00;;
22652;SDS011;11493;43.344;26.226;2022-07-05T08:32:13;9.50;;;1.88;;
22652;SDS011;11493;43.344;26.226;2022-07-05T08:34:40;8.05;;;2.00;;
22652;SDS011;11493;43.344;26.226;2022-07-05T08:37:08;7.88;;;1.48;;
22652;SDS011;11493;43.344;26.226;2022-07-05T08:39:41;2.30;;;1.50;;
22652;SDS011;11493;43.344;26.226;2022-07-05T08:42:09;5.18;;;1.38;;
22652;SDS011;11493;43.344;26.226;2022-07-05T08:44:38;4.28;;;1.48;;
22652;SDS011;11493;43.344;26.226;2022-07-05T08:47:10;9.02;;;1.60;;
22652;SDS011;11493;43.344;26.226;2022-07-05T08:49:40;3.08;;;1.30;;
22652;SDS011;11493;43.344;26.226;2022-07-05T08:52:09;5.63;;;1.92;;
22652;SDS011;11493;43.344;26.226;2022-07-05T08:54:38;1.63;;;1.27;;
22652;SDS011;11493;43.344;26.226;2022-07-05T08:57:06;14.88;;;2.33;;
22652;SDS011;11493;43.344;26.226;2022-07-05T08:59:40;2.28;;;1.50;;
22652;SDS011;11493;43.344;26.226;2022-07-05T09:02:10;6.63;;;1.60;;
22652;SDS011;11493;43.344;26.226;2022-07-05T09:04:41;5.60;;;2.00;;
22652;SDS011;11493;43.344;26.226;2022-07-05T09:07:13;5.50;;;1.80;;
22652;SDS011;11493;43.344;26.226;2022-07-05T09:09:43;10.50;;;2.45;;
22652;SDS011;11493;43.344;26.226;2022-07-05T09:12:14;7.85;;;1.73;;
22652;SDS011;11493;43.344;26.226;2022-07-05T09:14:48;4.63;;;1.83;;
22652;SDS011;11493;43.344;26.226;2022-07-05T09:17:17;5.07;;;1.80;;
22652;SDS011;11493;43.344;26.226;2022-07-05T09:19:50;4.93;;;2.05;;
22652;SDS011;11493;43.344;26.226;2022-07-05T09:30:23;5.20;;;2.40;;
22652;SDS011;11493;43.344;26.226;2022-07-05T09:35:33;8.57;;;2.58;;
22652;SDS011;11493;43.344;26.226;2022-07-05T09:38:02;3.43;;;2.17;;
22652;SDS011;11493;43.344;26.226;2022-07-05T09:40:31;6.55;;;2.35;;
22652;SDS011;11493;43.344;26.226;2022-07-05T09:46:01;8.00;;;2.10;;
22652;SDS011;11493;43.344;26.226;2022-07-05T09:48:31;6.88;;;2.35;;
22652;SDS011;11493;43.344;26.226;2022-07-05T09:53:57;4.70;;;2.85;;
22652;SDS011;11493;43.344;26.226;2022-07-05T09:56:28;7.75;;;2.63;;
22652;SDS011;11493;43.344;26.226;2022-07-05T09:59:19;4.47;;;2.72;;
22652;SDS011;11493;43.344;26.226;2022-07-05T10:01:48;7.50;;;2.55;;
22652;SDS011;11493;43.344;26.226;2022-07-05T10:04:15;7.85;;;2.17;;
22652;SDS011;11493;43.344;26.226;2022-07-05T10:06:43;8.07;;;2.10;;
22652;SDS011;11493;43.344;26.226;2022-07-05T10:09:11;3.92;;;2.20;;
22652;SDS011;11493;43.344;26.226;2022-07-05T10:11:42;5.60;;;2.60;;
22652;SDS011;11493;43.344;26.226;2022-07-05T10:14:18;3.20;;;2.47;;
22652;SDS011;11493;43.344;26.226;2022-07-05T10:17:00;6.60;;;2.80;;
22652;SDS011;11493;43.344;26.226;2022-07-05T10:19:32;4.65;;;2.30;;
22652;SDS011;11493;43.344;26.226;2022-07-05T10:22:05;5.85;;;2.60;;
22652;SDS011;11493;43.344;26.226;2022-07-05T10:24:48;15.10;;;2.60;;
22652;SDS011;11493;43.344;26.226;2022-07-05T10:27:17;9.18;;;2.70;;
22652;SDS011;11493;43.344;26.226;2022-07-05T10:29:45;4.32;;;2.15;;
22652;SDS011;11493;43.344;26.226;2022-07-05T10:32:15;8.47;;;2.80;;
22652;SDS011;11493;43.344;26.226;2022-07-05T10:34:46;4.82;;;2.40;;
22652;SDS011;11493;43.344;26.226;2022-07-05T10:37:27;4.13;;;2.38;;
22652;SDS011;11493;43.344;26.226;2022-07-05T10:39:57;2.35;;;2.10;;
22652;SDS011;11493;43.344;26.226;2022-07-05T10:42:27;4.70;;;2.40;;
22652;SDS011;11493;43.344;26.226;2022-07-05T10:44:58;4.78;;;2.50;;
22652;SDS011;11493;43.344;26.226;2022-07-05T10:47:27;3.95;;;2.90;;
22652;SDS011;11493;43.344;26.226;2022-07-05T10:50:04;6.53;;;2.17;;
22652;SDS011;11493;43.344;26.226;2022-07-05T10:52:32;8.13;;;2.65;;
22652;SDS011;11493;43.344;26.226;2022-07-05T10:55:18;7.90;;;2.55;;
22652;SDS011;11493;43.344;26.226;2022-07-05T10:58:17;3.07;;;2.77;;
22652;SDS011;11493;43.344;26.226;2022-07-05T11:00:43;7.25;;;2.55;;
22652;SDS011;11493;43.344;26.226;2022-07-05T11:06:06;9.50;;;3.10;;
22652;SDS011;11493;43.344;26.226;2022-07-05T11:11:27;5.22;;;2.60;;
22652;SDS011;11493;43.344;26.226;2022-07-05T11:16:48;4.93;;;2.65;;
22652;SDS011;11493;43.344;26.226;2022-07-05T11:22:33;5.72;;;2.30;;
22652;SDS011;11493;43.344;26.226;2022-07-05T11:25:19;9.68;;;2.58;;
22652;SDS011;11493;43.344;26.226;2022-07-05T11:28:01;8.52;;;2.85;;
22652;SDS011;11493;43.344;26.226;2022-07-05T11:33:25;5.57;;;2.53;;
22652;SDS011;11493;43.344;26.226;2022-07-05T11:35:55;4.45;;;2.40;;
22652;SDS011;11493;43.344;26.226;2022-07-05T11:38:24;4.60;;;2.30;;
22652;SDS011;11493;43.344;26.226;2022-07-05T11:41:11;4.28;;;2.38;;
22652;SDS011;11493;43.344;26.226;2022-07-05T11:43:40;10.52;;;2.60;;
22652;SDS011;11493;43.344;26.226;2022-07-05T11:46:09;7.90;;;2.30;;
22652;SDS011;11493;43.344;26.226;2022-07-05T11:48:57;6.82;;;2.55;;
22652;SDS011;11493;43.344;26.226;2022-07-05T11:51:26;4.10;;;2.40;;
22652;SDS011;11493;43.344;26.226;2022-07-05T11:53:54;4.07;;;2.30;;
22652;SDS011;11493;43.344;26.226;2022-07-05T11:56:41;9.00;;;2.67;;
22652;SDS011;11493;43.344;26.226;2022-07-05T11:59:22;6.22;;;2.60;;
22652;SDS011;11493;43.344;26.226;2022-07-05T12:01:51;5.25;;;2.80;;
22652;SDS011;11493;43.344;26.226;2022-07-05T12:06:54;6.90;;;2.40;;
22652;SDS011;11493;43.344;26.226;2022-07-05T12:09:29;11.63;;;2.42;;
22652;SDS011;11493;43.344;26.226;2022-07-05T12:12:18;4.53;;;2.05;;
22652;SDS011;11493;43.344;26.226;2022-07-05T12:15:05;7.93;;;2.63;;
22652;SDS011;11493;43.344;26.226;2022-07-05T12:17:34;12.65;;;2.58;;
22652;SDS011;11493;43.344;26.226;2022-07-05T12:20:04;8.43;;;2.90;;
22652;SDS011;11493;43.344;26.226;2022-07-05T12:22:36;9.25;;;2.08;;
22652;SDS011;11493;43.344;26.226;2022-07-05T12:25:06;4.68;;;2.35;;
22652;SDS011;11493;43.344;26.226;2022-07-05T12:27:37;3.65;;;2.25;;
22652;SDS011;11493;43.344;26.226;2022-07-05T12:30:06;6.45;;;2.50;;
22652;SDS011;11493;43.344;26.226;2022-07-05T12:35:45;4.70;;;2.15;;
22652;SDS011;11493;43.344;26.226;2022-07-05T12:38:17;9.27;;;2.35;;
22652;SDS011;11493;43.344;26.226;2022-07-05T12:40:56;3.72;;;2.55;;
22652;SDS011;11493;43.344;26.226;2022-07-05T12:43:25;8.32;;;2.88;;
22652;SDS011;11493;43.344;26.226;2022-07-05T12:45:59;5.55;;;2.65;;
22652;SDS011;11493;43.344;26.226;2022-07-05T12:51:01;7.80;;;2.80;;
22652;SDS011;11493;43.344;26.226;2022-07-05T12:53:48;7.30;;;2.88;;
22652;SDS011;11493;43.344;26.226;2022-07-05T12:56:35;6.63;;;2.50;;
22652;SDS011;11493;43.344;26.226;2022-07-05T12:59:56;6.22;;;2.60;;
22652;SDS011;11493;43.344;26.226;2022-07-05T13:02:33;5.13;;;2.45;;
22652;SDS011;11493;43.344;26.226;2022-07-05T13:05:06;7.93;;;2.63;;
22652;SDS011;11493;43.344;26.226;2022-07-05T13:07:41;4.53;;;2.37;;
22652;SDS011;11493;43.344;26.226;2022-07-05T13:10:18;14.57;;;2.78;;
22652;SDS011;11493;43.344;26.226;2022-07-05T13:12:47;4.13;;;2.80;;
22652;SDS011;11493;43.344;26.226;2022-07-05T13:15:16;7.35;;;2.70;;
22652;SDS011;11493;43.344;26.226;2022-07-05T13:17:44;6.68;;;2.50;;
22652;SDS011;11493;43.344;26.226;2022-07-05T13:20:13;7.30;;;2.78;;
22652;SDS011;11493;43.344;26.226;2022-07-05T13:22:45;7.60;;;2.40;;
22652;SDS011;11493;43.344;26.226;2022-07-05T13:25:13;8.27;;;2.38;;
22652;SDS011;11493;43.344;26.226;2022-07-05T13:27:41;10.15;;;2.60;;
22652;SDS011;11493;43.344;26.226;2022-07-05T13:30:09;5.53;;;2.20;;
22652;SDS011;11493;43.344;26.226;2022-07-05T13:32:38;2.72;;;2.25;;
22652;SDS011;11493;43.344;26.226;2022-07-05T13:35:05;10.18;;;2.70;;
22652;SDS011;11493;43.344;26.226;2022-07-05T13:37:33;5.43;;;2.63;;
22652;SDS011;11493;43.344;26.226;2022-07-05T13:40:00;5.55;;;2.97;;
22652;SDS011;11493;43.344;26.226;2022-07-05T13:42:29;11.30;;;2.70;;
22652;SDS011;11493;43.344;26.226;2022-07-05T13:44:56;4.28;;;1.98;;
22652;SDS011;11493;43.344;26.226;2022-07-05T13:47:23;5.43;;;2.40;;
22652;SDS011;11493;43.344;26.226;2022-07-05T13:49:51;3.95;;;2.85;;
22652;SDS011;11493;43.344;26.226;2022-07-05T13:52:41;13.25;;;2.80;;
22652;SDS011;11493;43.344;26.226;2022-07-05T13:55:08;3.40;;;2.53;;
22652;SDS011;11493;43.344;26.226;2022-07-05T13:57:36;3.45;;;2.17;;
22652;SDS011;11493;43.344;26.226;2022-07-05T14:00:03;6.57;;;1.92;;
22652;SDS011;11493;43.344;26.226;2022-07-05T14:02:31;7.85;;;2.53;;
22652;SDS011;11493;43.344;26.226;2022-07-05T14:04:59;2.50;;;2.22;;
22652;SDS011;11493;43.344;26.226;2022-07-05T14:07:27;9.85;;;2.40;;
22652;SDS011;11493;43.344;26.226;2022-07-05T14:09:54;10.85;;;2.08;;
22652;SDS011;11493;43.344;26.226;2022-07-05T14:12:21;2.78;;;2.10;;
22652;SDS011;11493;43.344;26.226;2022-07-05T14:14:48;7.63;;;2.13;;
22652;SDS011;11493;43.344;26.226;2022-07-05T14:17:16;6.85;;;2.08;;
22652;SDS011;11493;43.344;26.226;2022-07-05T14:19:43;10.88;;;2.55;;
22652;SDS011;11493;43.344;26.226;2022-07-05T14:22:11;4.85;;;2.33;;
22652;SDS011;11493;43.344;26.226;2022-07-05T14:24:38;5.45;;;2.50;;
22652;SDS011;11493;43.344;26.226;2022-07-05T14:27:06;9.20;;;2.80;;
22652;SDS011;11493;43.344;26.226;2022-07-05T14:29:36;6.13;;;2.10;;
22652;SDS011;11493;43.344;26.226;2022-07-05T14:32:03;3.55;;;1.95;;
22652;SDS011;11493;43.344;26.226;2022-07-05T14:34:31;6.63;;;2.30;;
22652;SDS011;11493;43.344;26.226;2022-07-05T14:36:58;7.25;;;2.28;;
22652;SDS011;11493;43.344;26.226;2022-07-05T14:39:26;11.50;;;2.70;;
22652;SDS011;11493;43.344;26.226;2022-07-05T14:41:53;10.73;;;2.33;;
22652;SDS011;11493;43.344;26.226;2022-07-05T14:44:21;5.82;;;2.20;;
22652;SDS011;11493;43.344;26.226;2022-07-05T14:46:48;4.20;;;2.70;;
22652;SDS011;11493;43.344;26.226;2022-07-05T14:49:16;6.88;;;2.65;;
22652;SDS011;11493;43.344;26.226;2022-07-05T14:51:43;7.80;;;2.53;;
22652;SDS011;11493;43.344;26.226;2022-07-05T14:54:11;11.52;;;3.42;;
22652;SDS011;11493;43.344;26.226;2022-07-05T14:56:38;7.88;;;2.55;;
22652;SDS011;11493;43.344;26.226;2022-07-05T14:59:05;8.40;;;2.72;;
22652;SDS011;11493;43.344;26.226;2022-07-05T15:01:32;2.60;;;2.20;;
22652;SDS011;11493;43.344;26.226;2022-07-05T15:04:00;4.50;;;2.30;;
22652;SDS011;11493;43.344;26.226;2022-07-05T15:06:27;4.03;;;2.28;;
22652;SDS011;11493;43.344;26.226;2022-07-05T15:08:55;5.13;;;2.70;;
22652;SDS011;11493;43.344;26.226;2022-07-05T15:11:25;8.45;;;2.45;;
22652;SDS011;11493;43.344;26.226;2022-07-05T15:13:53;7.22;;;2.53;;
22652;SDS011;11493;43.344;26.226;2022-07-05T15:16:21;4.47;;;2.55;;
22652;SDS011;11493;43.344;26.226;2022-07-05T15:18:49;15.68;;;2.80;;
22652;SDS011;11493;43.344;26.226;2022-07-05T15:21:17;4.65;;;2.42;;
22652;SDS011;11493;43.344;26.226;2022-07-05T15:23:44;3.72;;;2.65;;
22652;SDS011;11493;43.344;26.226;2022-07-05T15:26:11;9.82;;;2.65;;
22652;SDS011;11493;43.344;26.226;2022-07-05T15:28:38;7.85;;;2.83;;
22652;SDS011;11493;43.344;26.226;2022-07-05T15:31:06;4.65;;;2.70;;
22652;SDS011;11493;43.344;26.226;2022-07-05T15:33:33;5.97;;;2.40;;